Time;durP1;ratioP1;P1;durP2;ratioP2;P2;SDS_P1;SDS_P2;PMS_P1;PMS_P2;Temp;Humidity;BMP_temperature;BMP_pressure;BME280_temperature;BME280_humidity;BME280_pressure;Samples;Min_cycle;Max_cycle;Signal;HPM_P1;HPM_P2
2022/06/27 00:00:14;;;;;;;;;;;;;;;;;;5128492;28;19920;-86
2022/06/27 00:02:39;;;;;;;;;;;;;;;;;;5132943;28;19953;-86
2022/06/27 00:05:05;;;;;;;;;;;;;;;;;;5133877;28;19922;-86
2022/06/27 00:07:30;;;;;;;;;;;;;;;;;;5125909;28;20276;-87
2022/06/27 00:09:56;;;;;;;;;;;;;;;;;;5130638;28;19912;-87
2022/06/27 00:12:21;;;;;;;;;;;;;;;;;;5128646;28;20032;-84
2022/06/27 00:14:46;;;;;;;;;;;;;;;;;;5123851;28;19916;-85
2022/06/27 00:17:12;;;;;;;;;;;;;;;;;;5118897;28;19912;-86
2022/06/27 00:19:37;;;;;;;;;;;;;;;;;;5118892;28;19916;-87
2022/06/27 00:22:04;;;;;;;;;;;;;;;;;;5118868;28;19912;-87
2022/06/27 00:24:29;;;;;;;;;;;;;;;;;;5124207;28;19916;-86
2022/06/27 00:26:55;;;;;;;;;;;;;;;;;;5132903;28;19915;-86
2022/06/27 00:29:20;;;;;;;;;;;;;;;;;;5121912;28;19912;-87
2022/06/27 00:31:46;;;;;;;;;;;;;;;;;;5122149;28;19916;-86
2022/06/27 00:34:11;;;;;;;;;;;;;;;;;;5123863;28;19923;-86
2022/06/27 00:36:36;;;;;;;;;;;;;;;;;;5118234;28;19933;-86
2022/06/27 00:39:02;;;;;;;;;;;;;;;;;;5133612;28;19916;-84
2022/06/27 00:41:27;;;;;;;;;;;;;;;;;;5134137;28;19991;-87
2022/06/27 00:43:52;;;;;;;;;;;;;;;;;;5133520;28;20306;-86
2022/06/27 00:46:18;;;;;;;;;;;;;;;;;;5119338;28;19959;-87
2022/06/27 00:48:43;;;;;;;;;;;;;;;;;;5121785;28;19919;-85
2022/06/27 00:51:08;;;;;;;;;;;;;;;;;;5126295;28;19915;-86
2022/06/27 00:53:33;;;;;;;;;;;;;;;;;;5110853;28;19951;-87
2022/06/27 00:55:59;;;;;;;;;;;;;;;;;;5128156;28;20264;-88
2022/06/27 00:58:24;;;;;;;;;;;;;;;;;;5119351;28;19938;-87
2022/06/27 01:00:49;;;;;;;;;;;;;;;;;;5118347;28;19919;-87
2022/06/27 01:03:15;;;;;;;;;;;;;;;;;;5120789;28;19920;-87
2022/06/27 01:05:51;;;;;;;;;;;;;;;;;;5118832;28;20237;-87
2022/06/27 01:08:19;;;;;;;;;;;;;;;;;;5121764;28;20023;-87
2022/06/27 01:10:45;;;;;;;;;;;;;;;;;;5119171;28;20392;-86
2022/06/27 01:13:10;;;;;;;;;;;;;;;;;;5120358;28;19916;-86
2022/06/27 01:15:36;;;;;;;;;;;;;;;;;;5125536;28;19959;-85
2022/06/27 01:18:01;;;;;;;;;;;;;;;;;;5119087;28;19951;-87
2022/06/27 01:20:26;;;;;;;;;;;;;;;;;;5118943;28;19916;-85
2022/06/27 01:22:52;;;;;;;;;;;;;;;;;;5106069;28;19940;-86
2022/06/27 01:25:17;;;;;;;;;;;;;;;;;;5126305;28;19965;-87
2022/06/27 01:27:43;;;;;;;;;;;;;;;;;;5103099;28;19916;-88
2022/06/27 01:30:08;;;;;;;;;;;;;;;;;;5118121;28;19923;-87
2022/06/27 01:32:34;;;;;;;;;;;;;;;;;;5125894;28;20249;-86
2022/06/27 01:34:59;;;;;;;;;;;;;;;;;;5122537;28;19923;-86
2022/06/27 01:37:24;;;;;;;;;;;;;;;;;;5123289;28;19977;-87
2022/06/27 01:39:50;;;;;;;;;;;;;;;;;;5124601;28;19916;-87
2022/06/27 01:42:15;;;;;;;;;;;;;;;;;;5128946;28;19915;-86
2022/06/27 01:44:40;;;;;;;;;;;;;;;;;;5129845;28;19965;-86
2022/06/27 01:47:08;;;;;;;;;;;;;;;;;;5126778;28;19916;-87
2022/06/27 01:49:33;;;;;;;;;;;;;;;;;;5121913;28;19919;-87
2022/06/27 01:52:00;;;;;;;;;;;;;;;;;;5129751;28;19920;-86
2022/06/27 01:54:26;;;;;;;;;;;;;;;;;;5119862;28;19916;-86
2022/06/27 01:56:53;;;;;;;;;;;;;;;;;;5126400;28;20008;-88
2022/06/27 01:59:19;;;;;;;;;;;;;;;;;;5125919;28;19938;-87
2022/06/27 02:01:44;;;;;;;;;;;;;;;;;;5124055;28;19991;-86
2022/06/27 02:04:10;;;;;;;;;;;;;;;;;;5102587;28;20381;-86
2022/06/27 02:06:35;;;;;;;;;;;;;;;;;;5121484;28;19942;-84
2022/06/27 02:09:02;;;;;;;;;;;;;;;;;;5120936;28;19916;-85
2022/06/27 02:11:28;;;;;;;;;;;;;;;;;;5124061;28;19920;-86
2022/06/27 02:13:55;;;;;;;;;;;;;;;;;;5123940;28;20359;-86
2022/06/27 02:16:20;;;;;;;;;;;;;;;;;;5126032;28;19932;-85
2022/06/27 02:18:46;;;;;;;;;;;;;;;;;;5122143;28;19920;-87
2022/06/27 02:21:12;;;;;;;;;;;;;;;;;;5122018;28;19923;-87
2022/06/27 02:23:37;;;;;;;;;;;;;;;;;;5105962;28;19916;-87
2022/06/27 02:26:02;;;;;;;;;;;;;;;;;;5121830;28;19998;-87
2022/06/27 02:28:28;;;;;;;;;;;;;;;;;;5123814;28;19916;-87
2022/06/27 02:30:54;;;;;;;;;;;;;;;;;;5124054;28;19922;-87
2022/06/27 02:33:19;;;;;;;;;;;;;;;;;;5104293;28;19916;-87
2022/06/27 02:35:45;;;;;;;;;;;;;;;;;;5120953;28;19915;-87
2022/06/27 02:38:10;;;;;;;;;;;;;;;;;;5126182;28;19923;-87
2022/06/27 02:40:39;;;;;;;;;;;;;;;;;;5124090;28;19916;-85
2022/06/27 02:43:04;;;;;;;;;;;;;;;;;;5131238;28;19956;-88
2022/06/27 02:45:29;;;;;;;;;;;;;;;;;;5122193;28;19916;-88
2022/06/27 02:47:56;;;;;;;;;;;;;;;;;;5124278;28;19955;-88
2022/06/27 02:50:22;;;;;;;;;;;;;;;;;;5127223;28;19916;-87
2022/06/27 02:52:47;;;;;;;;;;;;;;;;;;5125306;28;19981;-87
2022/06/27 02:55:13;;;;;;;;;;;;;;;;;;5121289;28;19998;-86
2022/06/27 02:57:41;;;;;;;;;;;;;;;;;;5120649;28;19915;-86
2022/06/27 03:00:07;;;;;;;;;;;;;;;;;;5126051;28;19915;-85
2022/06/27 03:02:33;;;;;;;;;;;;;;;;;;5126475;28;19927;-88
2022/06/27 03:04:58;;;;;;;;;;;;;;;;;;5123015;28;19916;-87
2022/06/27 03:07:23;;;;;;;;;;;;;;;;;;5122594;28;19919;-87
2022/06/27 03:09:49;;;;;;;;;;;;;;;;;;5123140;28;19916;-87
2022/06/27 03:12:15;;;;;;;;;;;;;;;;;;5122977;28;19926;-87
2022/06/27 03:14:41;;;;;;;;;;;;;;;;;;5120257;28;19922;-87
2022/06/27 03:17:06;;;;;;;;;;;;;;;;;;5122753;28;20374;-87
2022/06/27 03:19:31;;;;;;;;;;;;;;;;;;5122353;28;19916;-87
2022/06/27 03:21:57;;;;;;;;;;;;;;;;;;5122500;28;20006;-86
2022/06/27 03:24:22;;;;;;;;;;;;;;;;;;5122932;28;19923;-88
2022/06/27 03:26:47;;;;;;;;;;;;;;;;;;5124404;28;19923;-87
2022/06/27 03:29:13;;;;;;;;;;;;;;;;;;5119786;28;19915;-87
2022/06/27 03:31:39;;;;;;;;;;;;;;;;;;5120000;28;19979;-87
2022/06/27 03:34:04;;;;;;;;;;;;;;;;;;5119960;28;19969;-88
2022/06/27 03:36:30;;;;;;;;;;;;;;;;;;5119696;28;20015;-88
2022/06/27 03:38:55;;;;;;;;;;;;;;;;;;5117763;28;19916;-87
2022/06/27 03:41:20;;;;;;;;;;;;;;;;;;5119942;28;19958;-86
2022/06/27 03:43:46;;;;;;;;;;;;;;;;;;5123606;28;19980;-87
2022/06/27 03:46:11;;;;;;;;;;;;;;;;;;5120379;28;19981;-87
2022/06/27 03:51:20;;;;;;;;;;;;;;;;;;5117114;28;19972;-87
2022/06/27 03:53:46;;;;;;;;;;;;;;;;;;5098574;28;19916;-87
2022/06/27 03:56:11;;;;;;;;;;;;;;;;;;5098401;28;20249;-87
2022/06/27 03:58:36;;;;;;;;;;;;;;;;;;5117352;28;19916;-88
2022/06/27 04:01:03;;;;;;;;;;;;;;;;;;5117894;28;20368;-87
2022/06/27 04:03:28;;;;;;;;;;;;;;;;;;5118243;28;19922;-87
2022/06/27 04:05:54;;;;;;;;;;;;;;;;;;5117012;28;19916;-88
2022/06/27 04:08:19;;;;;;;;;;;;;;;;;;5118873;28;19943;-88
2022/06/27 04:10:44;;;;;;;;;;;;;;;;;;5119225;28;19920;-87
2022/06/27 04:13:10;;;;;;;;;;;;;;;;;;5115938;28;19922;-83
2022/06/27 04:15:35;;;;;;;;;;;;;;;;;;5116403;28;19999;-83
2022/06/27 04:18:00;;;;;;;;;;;;;;;;;;5114711;28;19912;-81
2022/06/27 04:20:26;;;;;;;;;;;;;;;;;;5097774;28;19916;-81
2022/06/27 04:22:51;;;;;;;;;;;;;;;;;;5114474;28;20052;-82
2022/06/27 04:25:16;;;;;;;;;;;;;;;;;;5115514;28;19923;-83
2022/06/27 04:27:42;;;;;;;;;;;;;;;;;;5115598;28;19916;-83
2022/06/27 04:30:09;;;;;;;;;;;;;;;;;;5097560;28;19919;-82
2022/06/27 04:32:34;;;;;;;;;;;;;;;;;;5115507;28;20217;-81
2022/06/27 04:35:01;;;;;;;;;;;;;;;;;;5116007;28;19920;-82
2022/06/27 04:37:27;;;;;;;;;;;;;;;;;;5115636;28;20002;-82
2022/06/27 04:39:52;;;;;;;;;;;;;;;;;;5115297;28;19958;-82
2022/06/27 04:42:18;;;;;;;;;;;;;;;;;;5115557;28;19934;-81
2022/06/27 04:44:44;;;;;;;;;;;;;;;;;;5114326;28;19916;-83
2022/06/27 04:47:12;;;;;;;;;;;;;;;;;;5115427;28;20784;-83
2022/06/27 04:49:42;;;;;;;;;;;;;;;;;;5114363;28;19990;-83
2022/06/27 04:52:07;;;;;;;;;;;;;;;;;;5115882;28;19923;-83
2022/06/27 04:54:36;;;;;;;;;;;;;;;;;;5117057;28;19916;-81
2022/06/27 04:57:03;;;;;;;;;;;;;;;;;;5107219;28;19977;-82
2022/06/27 04:59:28;;;;;;;;;;;;;;;;;;5094060;28;20265;-82
2022/06/27 05:01:57;;;;;;;;;;;;;;;;;;5110726;28;20105;-83
2022/06/27 05:04:22;;;;;;;;;;;;;;;;;;5091495;28;19916;-84
2022/06/27 05:06:48;;;;;;;;;;;;;;;;;;5095279;28;19927;-81
2022/06/27 05:09:13;;;;;;;;;;;;;;;;;;5122679;27;19923;-78
2022/06/27 05:11:39;;;;;;;;;;;;;;;;;;5128862;27;19923;-81
2022/06/27 05:14:04;;;;;;;;;;;;;;;;;;5117295;28;20436;-81
2022/06/27 05:16:30;;;;;;;;;;;;;;;;;;5114724;27;20253;-81
2022/06/27 05:18:55;;;;;;;;;;;;;;;;;;5125279;27;19916;-80
2022/06/27 05:21:21;;;;;;;;;;;;;;;;;;5131285;27;19943;-79
2022/06/27 05:23:46;;;;;;;;;;;;;;;;;;5093517;28;19915;-78
2022/06/27 05:26:12;;;;;;;;;;;;;;;;;;5116958;28;20058;-79
2022/06/27 05:28:37;;;;;;;;;;;;;;;;;;5117337;28;19915;-81
2022/06/27 05:31:03;;;;;;;;;;;;;;;;;;5133871;28;20310;-79
2022/06/27 05:33:28;;;;;;;;;;;;;;;;;;5133457;28;19958;-80
2022/06/27 05:35:53;;;;;;;;;;;;;;;;;;5136998;28;20260;-80
2022/06/27 05:38:20;;;;;;;;;;;;;;;;;;5117178;28;20330;-79
2022/06/27 05:40:48;;;;;;;;;;;;;;;;;;5122723;28;19922;-80
2022/06/27 05:43:14;;;;;;;;;;;;;;;;;;5133506;28;20355;-80
2022/06/27 05:45:42;;;;;;;;;;;;;;;;;;5124170;28;19922;-80
2022/06/27 05:48:08;;;;;;;;;;;;;;;;;;5125048;28;19919;-81
2022/06/27 05:50:34;;;;;;;;;;;;;;;;;;5126305;28;19915;-79
2022/06/27 05:53:01;;;;;;;;;;;;;;;;;;5122659;28;19921;-81
2022/06/27 05:55:28;;;;;;;;;;;;;;;;;;5119252;28;19915;-79
2022/06/27 05:57:54;;;;;;;;;;;;;;;;;;5127735;28;19915;-81
2022/06/27 06:00:21;;;;;;;;;;;;;;;;;;5126635;28;20546;-81
2022/06/27 06:02:47;;;;;;;;;;;;;;;;;;5133741;28;20337;-81
2022/06/27 06:05:15;;;;;;;;;;;;;;;;;;5133231;28;20011;-80
2022/06/27 06:07:53;;;;;;;;;;;;;;;;;;5135639;28;19972;-83
2022/06/27 06:11:05;;;;;;;;;;;;;;;;;;5100898;28;19938;-80
2022/06/27 06:13:43;;;;;;;;;;;;;;;;;;5121936;28;19919;-80
2022/06/27 06:16:10;;;;;;;;;;;;;;;;;;5119810;28;19959;-79
2022/06/27 06:18:36;;;;;;;;;;;;;;;;;;5118431;28;19916;-82
2022/06/27 06:21:01;;;;;;;;;;;;;;;;;;5120078;28;20332;-81
2022/06/27 06:23:27;;;;;;;;;;;;;;;;;;5117604;28;19912;-79
2022/06/27 06:25:52;;;;;;;;;;;;;;;;;;5118565;28;19923;-80
2022/06/27 06:28:18;;;;;;;;;;;;;;;;;;5120123;28;20194;-80
2022/06/27 06:30:44;;;;;;;;;;;;;;;;;;5118682;28;19918;-81
2022/06/27 06:33:09;;;;;;;;;;;;;;;;;;5120229;28;19916;-81
2022/06/27 06:35:35;;;;;;;;;;;;;;;;;;5119921;28;19916;-79
2022/06/27 06:38:03;;;;;;;;;;;;;;;;;;5118606;28;19966;-78
2022/06/27 06:40:32;;;;;;;;;;;;;;;;;;5118571;28;19980;-80
2022/06/27 06:43:00;;;;;;;;;;;;;;;;;;5120420;28;19916;-81
2022/06/27 06:45:26;;;;;;;;;;;;;;;;;;5099965;28;19950;-81
2022/06/27 06:48:06;;;;;;;;;;;;;;;;;;5119721;28;19923;-80
2022/06/27 06:50:31;;;;;;;;;;;;;;;;;;5116089;28;19947;-77
2022/06/27 06:52:57;;;;;;;;;;;;;;;;;;5117403;28;19951;-81
2022/06/27 06:55:26;;;;;;;;;;;;;;;;;;5112739;27;19919;-78
2022/06/27 06:57:54;;;;;;;;;;;;;;;;;;5135696;27;19923;-78
2022/06/27 07:00:19;;;;;;;;;;;;;;;;;;5116731;28;20475;-79
2022/06/27 07:02:45;;;;;;;;;;;;;;;;;;5115953;28;19938;-79
2022/06/27 07:05:13;;;;;;;;;;;;;;;;;;5116205;28;19952;-80
2022/06/27 07:07:44;;;;;;;;;;;;;;;;;;5114949;28;19998;-78
2022/06/27 07:10:13;;;;;;;;;;;;;;;;;;5113918;28;19923;-79
2022/06/27 07:12:39;;;;;;;;;;;;;;;;;;5114518;28;19941;-81
2022/06/27 07:15:05;;;;;;;;;;;;;;;;;;5116874;28;19916;-79
2022/06/27 07:17:39;;;;;;;;;;;;;;;;;;5118645;28;20091;-79
2022/06/27 07:20:05;;;;;;;;;;;;;;;;;;5118104;28;19981;-78
2022/06/27 07:22:31;;;;;;;;;;;;;;;;;;5117554;28;19916;-81
2022/06/27 07:24:57;;;;;;;;;;;;;;;;;;5101520;28;19938;-78
2022/06/27 07:27:23;;;;;;;;;;;;;;;;;;5121102;28;20349;-80
2022/06/27 07:29:49;;;;;;;;;;;;;;;;;;5118655;28;19939;-79
2022/06/27 07:32:14;;;;;;;;;;;;;;;;;;5118337;27;19919;-78
2022/06/27 07:34:40;;;;;;;;;;;;;;;;;;5102250;28;19927;-80
2022/06/27 07:37:06;;;;;;;;;;;;;;;;;;5090464;27;19919;-80
2022/06/27 07:39:31;;;;;;;;;;;;;;;;;;5116266;28;19934;-81
2022/06/27 07:41:57;;;;;;;;;;;;;;;;;;5099694;28;20376;-80
2022/06/27 07:44:24;;;;;;;;;;;;;;;;;;5112607;28;19916;-80
2022/06/27 07:46:52;;;;;;;;;;;;;;;;;;5116636;28;19915;-82
2022/06/27 07:49:17;;;;;;;;;;;;;;;;;;5115827;28;19920;-80
2022/06/27 07:51:43;;;;;;;;;;;;;;;;;;5120177;27;20428;-82
2022/06/27 07:54:10;;;;;;;;;;;;;;;;;;5132393;27;20260;-79
2022/06/27 07:56:36;;;;;;;;;;;;;;;;;;5114274;28;19924;-80
2022/06/27 07:59:02;;;;;;;;;;;;;;;;;;5095406;28;19923;-81
2022/06/27 08:01:28;;;;;;;;;;;;;;;;;;5113007;28;19927;-81
2022/06/27 08:03:54;;;;;;;;;;;;;;;;;;5108848;28;19995;-79
2022/06/27 08:06:20;;;;;;;;;;;;;;;;;;5115280;28;19919;-78
2022/06/27 08:08:53;;;;;;;;;;;;;;;;;;5114522;28;19926;-80
2022/06/27 08:11:23;;;;;;;;;;;;;;;;;;5089103;28;19939;-81
2022/06/27 08:13:48;;;;;;;;;;;;;;;;;;5101168;28;19942;-79
2022/06/27 08:16:15;;;;;;;;;;;;;;;;;;5115556;28;19916;-80
2022/06/27 08:18:42;;;;;;;;;;;;;;;;;;5094044;28;19939;-80
2022/06/27 08:21:10;;;;;;;;;;;;;;;;;;5095907;28;20614;-81
2022/06/27 08:23:37;;;;;;;;;;;;;;;;;;5117288;27;19920;-80
2022/06/27 08:26:04;;;;;;;;;;;;;;;;;;5100418;28;19920;-81
2022/06/27 08:28:30;;;;;;;;;;;;;;;;;;5108465;28;20614;-77
2022/06/27 08:31:00;;;;;;;;;;;;;;;;;;5107147;28;19919;-79
2022/06/27 08:33:29;;;;;;;;;;;;;;;;;;5116134;28;19915;-80
2022/06/27 08:35:56;;;;;;;;;;;;;;;;;;5114423;28;20300;-81
2022/06/27 08:38:22;;;;;;;;;;;;;;;;;;5098042;28;19926;-79
2022/06/27 08:40:48;;;;;;;;;;;;;;;;;;5107740;28;20242;-79
2022/06/27 08:43:14;;;;;;;;;;;;;;;;;;5095002;28;19927;-79
2022/06/27 08:45:43;;;;;;;;;;;;;;;;;;5111923;28;19924;-80
2022/06/27 08:48:13;;;;;;;;;;;;;;;;;;5117119;28;20002;-79
2022/06/27 08:50:45;;;;;;;;;;;;;;;;;;5120426;28;20568;-79
2022/06/27 08:53:14;;;;;;;;;;;;;;;;;;5115894;28;19958;-80
2022/06/27 08:55:46;;;;;;;;;;;;;;;;;;5099442;28;20481;-80
2022/06/27 08:58:12;;;;;;;;;;;;;;;;;;5108629;28;19920;-79
2022/06/27 09:00:40;;;;;;;;;;;;;;;;;;5107423;28;19991;-80
2022/06/27 09:03:06;;;;;;;;;;;;;;;;;;5093104;28;19916;-79
2022/06/27 09:05:32;;;;;;;;;;;;;;;;;;5109715;27;20348;-78
2022/06/27 09:08:02;;;;;;;;;;;;;;;;;;5114266;28;19915;-78
2022/06/27 09:10:34;;;;;;;;;;;;;;;;;;5114909;28;19926;-80
2022/06/27 09:13:01;;;;;;;;;;;;;;;;;;5112712;28;19919;-79
2022/06/27 09:15:42;;;;;;;;;;;;;;;;;;5112984;28;20553;-79
2022/06/27 09:18:08;;;;;;;;;;;;;;;;;;5113606;28;19926;-78
2022/06/27 09:20:48;;;;;;;;;;;;;;;;;;5116238;28;19927;-79
2022/06/27 09:23:39;;;;;;;;;;;;;;;;;;5114333;28;19916;-77
2022/06/27 09:26:06;;;;;;;;;;;;;;;;;;5117706;28;19922;-78
2022/06/27 09:28:42;;;;;;;;;;;;;;;;;;5118269;28;19916;-80
2022/06/27 09:31:10;;;;;;;;;;;;;;;;;;5118507;28;19916;-79
2022/06/27 09:33:37;;;;;;;;;;;;;;;;;;5114827;28;19920;-79
2022/06/27 09:36:13;;;;;;;;;;;;;;;;;;5114685;28;19916;-78
2022/06/27 09:38:42;;;;;;;;;;;;;;;;;;5119716;28;19923;-81
2022/06/27 09:41:13;;;;;;;;;;;;;;;;;;5106305;28;20010;-80
2022/06/27 09:43:48;;;;;;;;;;;;;;;;;;5115564;28;19924;-81
2022/06/27 09:46:15;;;;;;;;;;;;;;;;;;5093108;28;20015;-78
2022/06/27 09:48:44;;;;;;;;;;;;;;;;;;5115782;28;19916;-78
2022/06/27 09:51:12;;;;;;;;;;;;;;;;;;5119200;28;20188;-79
2022/06/27 09:53:40;;;;;;;;;;;;;;;;;;5121335;27;19927;-79
2022/06/27 09:56:32;;;;;;;;;;;;;;;;;;5119048;27;19942;-80
2022/06/27 09:58:58;;;;;;;;;;;;;;;;;;5107925;28;20142;-81
2022/06/27 10:01:23;;;;;;;;;;;;;;;;;;5114678;28;20337;-80
2022/06/27 10:03:50;;;;;;;;;;;;;;;;;;5112498;28;19971;-80
2022/06/27 10:06:16;;;;;;;;;;;;;;;;;;5096318;28;19920;-80
2022/06/27 10:08:48;;;;;;;;;;;;;;;;;;5093256;28;19923;-80
2022/06/27 10:11:14;;;;;;;;;;;;;;;;;;5102882;28;19931;-80
2022/06/27 10:13:39;;;;;;;;;;;;;;;;;;5104570;28;19920;-80
2022/06/27 10:16:14;;;;;;;;;;;;;;;;;;5105450;28;19927;-79
2022/06/27 10:18:52;;;;;;;;;;;;;;;;;;5094876;28;19920;-81
2022/06/27 10:21:24;;;;;;;;;;;;;;;;;;5114204;28;19924;-81
2022/06/27 10:24:02;;;;;;;;;;;;;;;;;;5118826;28;19968;-81
2022/06/27 10:26:42;;;;;;;;;;;;;;;;;;5115268;28;20006;-78
2022/06/27 10:29:26;;;;;;;;;;;;;;;;;;5119276;28;20014;-82
2022/06/27 10:31:52;;;;;;;;;;;;;;;;;;5117415;28;19919;-80
2022/06/27 10:34:17;;;;;;;;;;;;;;;;;;5114689;28;20379;-81
2022/06/27 10:36:43;;;;;;;;;;;;;;;;;;5116249;27;19919;-82
2022/06/27 10:39:18;;;;;;;;;;;;;;;;;;5109949;28;19942;-80
2022/06/27 10:41:44;;;;;;;;;;;;;;;;;;5100270;28;20268;-83
2022/06/27 10:44:29;;;;;;;;;;;;;;;;;;5118073;28;19916;-84
2022/06/27 10:46:54;;;;;;;;;;;;;;;;;;5117797;28;19972;-80
2022/06/27 10:49:21;;;;;;;;;;;;;;;;;;5116608;28;20036;-80
2022/06/27 10:51:46;;;;;;;;;;;;;;;;;;5115592;28;20257;-79
2022/06/27 10:54:11;;;;;;;;;;;;;;;;;;5116946;28;19922;-79
2022/06/27 10:56:37;;;;;;;;;;;;;;;;;;5115696;28;20302;-79
2022/06/27 10:59:07;;;;;;;;;;;;;;;;;;5116572;28;19920;-82
2022/06/27 11:01:33;;;;;;;;;;;;;;;;;;5115854;28;19916;-79
2022/06/27 11:03:58;;;;;;;;;;;;;;;;;;5116018;28;20244;-81
2022/06/27 11:06:24;;;;;;;;;;;;;;;;;;5115600;28;19984;-79
2022/06/27 11:08:50;;;;;;;;;;;;;;;;;;5114412;28;19923;-79
2022/06/27 11:11:33;;;;;;;;;;;;;;;;;;5114449;28;19920;-79
2022/06/27 11:13:59;;;;;;;;;;;;;;;;;;5116827;28;19916;-79
2022/06/27 11:16:26;;;;;;;;;;;;;;;;;;5117834;28;19922;-78
2022/06/27 11:18:52;;;;;;;;;;;;;;;;;;5101581;28;20237;-79
2022/06/27 11:21:18;;;;;;;;;;;;;;;;;;5101426;28;19922;-79
2022/06/27 11:24:02;;;;;;;;;;;;;;;;;;5118614;28;19972;-79
2022/06/27 11:26:31;;;;;;;;;;;;;;;;;;5122237;28;19915;-78
2022/06/27 11:31:57;;;;;;;;;;;;;;;;;;5116179;28;19938;-78
2022/06/27 11:34:24;;;;;;;;;;;;;;;;;;5116658;28;19927;-77
2022/06/27 11:36:50;;;;;;;;;;;;;;;;;;5117046;28;19931;-79
2022/06/27 11:39:16;;;;;;;;;;;;;;;;;;5115265;28;19916;-80
2022/06/27 11:41:41;;;;;;;;;;;;;;;;;;5099959;28;20012;-77
2022/06/27 11:44:08;;;;;;;;;;;;;;;;;;5115974;28;19965;-77
2022/06/27 11:46:39;;;;;;;;;;;;;;;;;;5118253;28;19969;-77
2022/06/27 11:49:05;;;;;;;;;;;;;;;;;;5100254;28;19923;-78
2022/06/27 11:51:32;;;;;;;;;;;;;;;;;;5116289;28;19938;-78
2022/06/27 11:54:00;;;;;;;;;;;;;;;;;;5098663;28;19945;-82
2022/06/27 11:56:26;;;;;;;;;;;;;;;;;;5096623;28;20284;-81
2022/06/27 11:58:52;;;;;;;;;;;;;;;;;;5113404;28;20333;-80
2022/06/27 12:01:18;;;;;;;;;;;;;;;;;;5113596;28;19985;-81
2022/06/27 12:04:03;;;;;;;;;;;;;;;;;;5113386;28;19925;-81
2022/06/27 12:06:29;;;;;;;;;;;;;;;;;;5113043;28;20306;-81
2022/06/27 12:09:03;;;;;;;;;;;;;;;;;;5115621;28;19916;-80
2022/06/27 12:11:28;;;;;;;;;;;;;;;;;;5116071;28;19942;-80
2022/06/27 12:13:58;;;;;;;;;;;;;;;;;;5114632;28;19916;-79
2022/06/27 12:16:23;;;;;;;;;;;;;;;;;;5098126;28;20252;-80
2022/06/27 12:18:51;;;;;;;;;;;;;;;;;;5115929;28;20002;-80
2022/06/27 12:21:21;;;;;;;;;;;;;;;;;;5115669;28;20409;-79
2022/06/27 12:23:48;;;;;;;;;;;;;;;;;;5112874;28;19916;-80
2022/06/27 12:26:13;;;;;;;;;;;;;;;;;;5113852;28;19964;-80
2022/06/27 12:28:42;;;;;;;;;;;;;;;;;;5114336;28;19915;-80
2022/06/27 12:31:07;;;;;;;;;;;;;;;;;;5114540;28;19916;-81
2022/06/27 12:33:33;;;;;;;;;;;;;;;;;;5115550;28;19916;-80
2022/06/27 12:35:58;;;;;;;;;;;;;;;;;;5115381;28;19981;-81
2022/06/27 12:38:24;;;;;;;;;;;;;;;;;;5113775;28;20255;-80
2022/06/27 12:40:49;;;;;;;;;;;;;;;;;;5114835;28;19915;-80
2022/06/27 12:43:14;;;;;;;;;;;;;;;;;;5113619;28;19963;-79
2022/06/27 12:45:40;;;;;;;;;;;;;;;;;;5113692;28;19923;-80
2022/06/27 12:48:06;;;;;;;;;;;;;;;;;;5113543;28;19920;-80
2022/06/27 12:50:32;;;;;;;;;;;;;;;;;;5113653;28;19973;-79
2022/06/27 12:52:57;;;;;;;;;;;;;;;;;;5113624;28;19926;-79
2022/06/27 12:55:22;;;;;;;;;;;;;;;;;;5113842;28;19923;-80
2022/06/27 12:57:48;;;;;;;;;;;;;;;;;;5114477;28;19922;-81
2022/06/27 13:00:13;;;;;;;;;;;;;;;;;;5114187;28;20309;-78
2022/06/27 13:02:38;;;;;;;;;;;;;;;;;;5096639;28;19946;-80
2022/06/27 13:05:04;;;;;;;;;;;;;;;;;;5114876;28;19916;-81
2022/06/27 13:07:29;;;;;;;;;;;;;;;;;;5096662;28;19927;-81
2022/06/27 13:09:55;;;;;;;;;;;;;;;;;;5113623;28;20329;-80
2022/06/27 13:12:20;;;;;;;;;;;;;;;;;;5114764;28;19920;-79
2022/06/27 13:14:45;;;;;;;;;;;;;;;;;;5113767;28;19965;-80
2022/06/27 13:17:11;;;;;;;;;;;;;;;;;;5115151;28;20321;-80
2022/06/27 13:19:36;;;;;;;;;;;;;;;;;;5113414;28;19919;-80
2022/06/27 13:22:02;;;;;;;;;;;;;;;;;;5114360;28;19931;-79
2022/06/27 13:24:28;;;;;;;;;;;;;;;;;;5113572;28;19915;-81
2022/06/27 13:26:53;;;;;;;;;;;;;;;;;;5096843;28;19923;-80
2022/06/27 13:29:19;;;;;;;;;;;;;;;;;;5113391;28;19916;-80
2022/06/27 13:31:44;;;;;;;;;;;;;;;;;;5115246;28;20248;-79
2022/06/27 13:34:10;;;;;;;;;;;;;;;;;;5113896;28;19915;-80
2022/06/27 13:36:36;;;;;;;;;;;;;;;;;;5113096;28;19916;-79
2022/06/27 13:39:01;;;;;;;;;;;;;;;;;;5096638;28;20359;-80
2022/06/27 13:41:26;;;;;;;;;;;;;;;;;;5113594;28;20402;-80
2022/06/27 13:43:52;;;;;;;;;;;;;;;;;;5113512;28;20002;-79
2022/06/27 13:46:17;;;;;;;;;;;;;;;;;;5113422;28;19916;-79
2022/06/27 13:48:43;;;;;;;;;;;;;;;;;;5113481;28;20266;-79
2022/06/27 13:51:08;;;;;;;;;;;;;;;;;;5114366;28;20006;-79
2022/06/27 13:53:33;;;;;;;;;;;;;;;;;;5113207;28;19959;-80
2022/06/27 13:55:59;;;;;;;;;;;;;;;;;;5113411;28;19965;-81
2022/06/27 13:58:24;;;;;;;;;;;;;;;;;;5113348;28;19915;-80
2022/06/27 14:00:50;;;;;;;;;;;;;;;;;;5113339;28;19980;-79
2022/06/27 14:03:16;;;;;;;;;;;;;;;;;;5113193;28;20246;-81
2022/06/27 14:05:42;;;;;;;;;;;;;;;;;;5096355;28;19951;-80
2022/06/27 14:08:07;;;;;;;;;;;;;;;;;;5114720;28;19969;-79
2022/06/27 14:10:33;;;;;;;;;;;;;;;;;;5096208;28;19947;-79
2022/06/27 14:12:58;;;;;;;;;;;;;;;;;;5113125;28;19915;-79
2022/06/27 14:15:23;;;;;;;;;;;;;;;;;;5113109;28;19976;-79
2022/06/27 14:17:49;;;;;;;;;;;;;;;;;;5113368;28;20002;-79
2022/06/27 14:20:15;;;;;;;;;;;;;;;;;;5114285;28;20337;-79
2022/06/27 14:22:41;;;;;;;;;;;;;;;;;;5114446;28;20333;-80
2022/06/27 14:25:06;;;;;;;;;;;;;;;;;;5114371;28;19930;-79
2022/06/27 14:27:32;;;;;;;;;;;;;;;;;;5113415;28;19947;-79
2022/06/27 14:29:57;;;;;;;;;;;;;;;;;;5114257;28;20218;-79
2022/06/27 14:32:23;;;;;;;;;;;;;;;;;;5115373;28;19923;-78
2022/06/27 14:34:48;;;;;;;;;;;;;;;;;;5116483;28;19916;-80
2022/06/27 14:37:13;;;;;;;;;;;;;;;;;;5116736;28;19916;-81
2022/06/27 14:39:39;;;;;;;;;;;;;;;;;;5116648;28;19980;-80
2022/06/27 14:42:04;;;;;;;;;;;;;;;;;;5116388;28;19916;-79
2022/06/27 14:44:32;;;;;;;;;;;;;;;;;;5117006;28;19922;-80
2022/06/27 14:46:57;;;;;;;;;;;;;;;;;;5099680;28;19923;-80
2022/06/27 14:49:22;;;;;;;;;;;;;;;;;;5116406;28;20261;-79
2022/06/27 14:51:49;;;;;;;;;;;;;;;;;;5099891;28;19923;-79
2022/06/27 14:54:14;;;;;;;;;;;;;;;;;;5116323;28;19956;-79
2022/06/27 14:56:39;;;;;;;;;;;;;;;;;;5116643;28;19916;-78
2022/06/27 14:59:05;;;;;;;;;;;;;;;;;;5117686;28;19923;-79
2022/06/27 15:01:30;;;;;;;;;;;;;;;;;;5117464;28;19947;-79
2022/06/27 15:03:57;;;;;;;;;;;;;;;;;;5116081;28;19955;-80
2022/06/27 15:06:22;;;;;;;;;;;;;;;;;;5117665;28;20009;-79
2022/06/27 15:08:48;;;;;;;;;;;;;;;;;;5117256;28;20245;-79
2022/06/27 15:13:57;;;;;;;;;;;;;;;;;;5117139;28;20410;-79
2022/06/27 15:16:23;;;;;;;;;;;;;;;;;;5117370;28;19920;-79
2022/06/27 15:18:48;;;;;;;;;;;;;;;;;;5098746;28;19915;-83
2022/06/27 15:21:14;;;;;;;;;;;;;;;;;;5116122;28;20329;-85
2022/06/27 15:23:39;;;;;;;;;;;;;;;;;;5115823;28;19923;-84
2022/06/27 15:26:04;;;;;;;;;;;;;;;;;;5117357;28;19916;-84
2022/06/27 15:28:30;;;;;;;;;;;;;;;;;;5115778;28;19922;-84
2022/06/27 15:30:55;;;;;;;;;;;;;;;;;;5117251;28;20035;-84
2022/06/27 15:33:20;;;;;;;;;;;;;;;;;;5098262;28;19922;-84
2022/06/27 15:35:46;;;;;;;;;;;;;;;;;;5115514;28;19923;-84
2022/06/27 15:38:12;;;;;;;;;;;;;;;;;;5115729;28;19915;-84
2022/06/27 15:40:39;;;;;;;;;;;;;;;;;;5117107;28;20119;-85
2022/06/27 15:43:04;;;;;;;;;;;;;;;;;;5115319;28;19916;-84
2022/06/27 15:45:30;;;;;;;;;;;;;;;;;;5115654;28;19923;-84
2022/06/27 15:47:55;;;;;;;;;;;;;;;;;;5116795;28;19916;-84
2022/06/27 15:50:21;;;;;;;;;;;;;;;;;;5116492;28;19916;-84
2022/06/27 15:52:46;;;;;;;;;;;;;;;;;;5115415;28;20352;-84
2022/06/27 15:55:12;;;;;;;;;;;;;;;;;;5115411;28;20003;-84
2022/06/27 15:57:38;;;;;;;;;;;;;;;;;;5115200;28;19923;-83
2022/06/27 16:00:07;;;;;;;;;;;;;;;;;;5116093;28;19920;-84
2022/06/27 16:02:33;;;;;;;;;;;;;;;;;;5116481;28;20384;-84
2022/06/27 16:04:58;;;;;;;;;;;;;;;;;;5098065;28;19959;-84
2022/06/27 16:07:23;;;;;;;;;;;;;;;;;;5097914;28;19941;-84
2022/06/27 16:09:49;;;;;;;;;;;;;;;;;;5115142;28;19968;-83
2022/06/27 16:12:16;;;;;;;;;;;;;;;;;;5114721;28;20325;-84
2022/06/27 16:14:42;;;;;;;;;;;;;;;;;;5114587;28;19916;-84
2022/06/27 16:17:07;;;;;;;;;;;;;;;;;;5114711;28;19919;-83
2022/06/27 16:19:32;;;;;;;;;;;;;;;;;;5114772;28;19915;-84
2022/06/27 16:21:59;;;;;;;;;;;;;;;;;;5114802;28;19912;-84
2022/06/27 16:24:25;;;;;;;;;;;;;;;;;;5115853;28;19923;-84
2022/06/27 16:26:51;;;;;;;;;;;;;;;;;;5114828;28;19916;-84
2022/06/27 16:29:16;;;;;;;;;;;;;;;;;;5115733;28;20258;-84
2022/06/27 16:31:43;;;;;;;;;;;;;;;;;;5114562;28;19939;-83
2022/06/27 16:34:12;;;;;;;;;;;;;;;;;;5115734;28;19916;-83
2022/06/27 16:36:38;;;;;;;;;;;;;;;;;;5097595;28;20345;-83
2022/06/27 16:39:03;;;;;;;;;;;;;;;;;;5114362;28;19988;-84
2022/06/27 16:43:13;;;;;;;;;;;;;;;;;;5115525;28;20027;-83
2022/06/27 16:44:14;;;;;;;;;;;;;;;;;;5115178;28;20234;-84
2022/06/27 16:46:39;;;;;;;;;;;;;;;;;;5114350;28;19923;-84
2022/06/27 16:49:05;;;;;;;;;;;;;;;;;;5114439;28;20010;-84
2022/06/27 16:51:31;;;;;;;;;;;;;;;;;;5114402;28;20010;-84